Time;durP1;ratioP1;P1;durP2;ratioP2;P2;SDS_P1;SDS_P2;PMS_P1;PMS_P2;Temp;Humidity;BMP_temperature;BMP_pressure;BME280_temperature;BME280_humidity;BME280_pressure;Samples;Min_cycle;Max_cycle;Signal;HPM_P1;HPM_P2
2022/12/12 00:00:29;;;;;;;67.23;21.70;;;1.90;98.30;;;;;;5011587;28;20485;-60
2022/12/12 00:02:57;;;;;;;47.03;15.17;;;1.80;98.50;;;;;;5011746;28;20477;-60
2022/12/12 00:05:24;;;;;;;76.13;22.30;;;1.70;98.50;;;;;;5012696;28;20500;-59
2022/12/12 00:07:51;;;;;;;67.20;18.23;;;1.80;98.90;;;;;;5012499;28;20480;-60
2022/12/12 00:10:18;;;;;;;58.03;18.47;;;1.80;98.60;;;;;;5023709;28;20491;-60
2022/12/12 00:12:44;;;;;;;60.37;18.10;;;1.90;98.80;;;;;;5022537;28;21359;-60
2022/12/12 00:15:13;;;;;;;67.70;17.20;;;1.90;98.60;;;;;;5012170;28;20977;-60
2022/12/12 00:17:40;;;;;;;73.53;23.63;;;1.90;98.70;;;;;;5007685;28;21244;-60
2022/12/12 00:20:07;;;;;;;53.23;16.83;;;1.90;98.50;;;;;;5011856;28;20481;-60
2022/12/12 00:22:33;;;;;;;67.13;20.47;;;1.80;98.40;;;;;;5016540;28;20495;-60
2022/12/12 00:25:00;;;;;;;67.80;19.23;;;1.80;98.60;;;;;;5018018;28;20488;-60
2022/12/12 00:27:27;;;;;;;63.40;20.97;;;1.80;98.60;;;;;;5008439;28;20490;-59
2022/12/12 00:29:55;;;;;;;52.47;16.70;;;1.90;98.70;;;;;;5016183;28;20472;-59
2022/12/12 00:32:23;;;;;;;66.10;24.00;;;4.50;99.90;;;;;;5026474;28;20481;-60
2022/12/12 00:34:50;;;;;;;43.00;17.40;;;2.00;98.60;;;;;;5008219;28;20885;-60
2022/12/12 00:37:17;;;;;;;57.63;17.57;;;2.00;98.80;;;;;;5018396;28;20489;-60
2022/12/12 00:39:43;;;;;;;71.27;20.30;;;2.10;98.60;;;;;;5031300;28;20545;-60
2022/12/12 00:42:10;;;;;;;46.70;17.93;;;2.00;98.40;;;;;;5023915;28;20476;-60
2022/12/12 00:44:37;;;;;;;59.23;17.43;;;2.10;98.70;;;;;;5019673;28;20488;-60
2022/12/12 00:47:04;;;;;;;34.57;15.07;;;2.20;98.60;;;;;;5021124;28;20469;-60
2022/12/12 00:49:32;;;;;;;54.67;20.40;;;2.20;98.60;;;;;;5023468;28;20484;-59
2022/12/12 00:51:59;;;;;;;50.07;17.70;;;2.30;98.70;;;;;;5022431;28;20492;-60
2022/12/12 00:54:25;;;;;;;64.47;20.90;;;2.30;98.60;;;;;;5012696;28;20477;-60
2022/12/12 00:56:52;;;;;;;54.73;16.33;;;2.30;98.40;;;;;;5017163;28;20487;-60
2022/12/12 00:59:19;;;;;;;59.60;21.23;;;;;;;;;;5013758;28;20484;-60
2022/12/12 01:01:47;;;;;;;49.47;16.80;;;2.30;98.50;;;;;;5012979;28;20468;-60
2022/12/12 01:04:13;;;;;;;45.07;16.63;;;4.70;99.50;;;;;;5020509;28;20485;-60
2022/12/12 01:06:41;;;;;;;44.97;16.33;;;2.40;98.40;;;;;;5018677;28;20682;-60
2022/12/12 01:09:08;;;;;;;48.27;18.87;;;2.40;98.10;;;;;;5017342;28;20888;-60
2022/12/12 01:11:35;;;;;;;49.40;19.33;;;2.20;97.70;;;;;;5016794;28;20865;-60
2022/12/12 01:14:02;;;;;;;56.67;16.60;;;2.10;97.90;;;;;;5035837;28;20480;-60
2022/12/12 01:16:29;;;;;;;70.23;23.93;;;;;;;;;;5032862;28;20476;-60
2022/12/12 01:18:56;;;;;;;46.87;15.60;;;2.20;98.50;;;;;;5034039;28;20475;-59
2022/12/12 01:21:24;;;;;;;58.90;19.73;;;2.10;97.80;;;;;;5041452;28;20483;-60
2022/12/12 01:23:52;;;;;;;37.27;14.07;;;;;;;;;;5038658;28;20492;-60
2022/12/12 01:26:21;;;;;;;64.40;21.40;;;2.00;97.90;;;;;;5026875;28;20484;-60
2022/12/12 01:28:48;;;;;;;43.90;14.63;;;2.10;98.30;;;;;;5017321;28;20504;-60
2022/12/12 01:31:16;;;;;;;46.80;16.17;;;2.20;98.50;;;;;;5016102;28;20936;-59
2022/12/12 01:33:44;;;;;;;46.57;15.40;;;2.20;98.00;;;;;;5027118;28;20936;-60
2022/12/12 01:36:15;;;;;;;64.20;19.60;;;;;;;;;;5022211;28;20485;-60
2022/12/12 01:38:42;;;;;;;54.57;15.00;;;2.20;98.10;;;;;;5017618;28;20948;-59
2022/12/12 01:41:11;;;;;;;40.53;13.37;;;2.20;98.10;;;;;;5020425;28;20488;-59
2022/12/12 01:43:38;;;;;;;44.43;15.30;;;2.30;98.10;;;;;;5026045;28;20989;-59
2022/12/12 01:46:34;;;;;;;49.37;19.27;;;2.30;98.30;;;;;;5029330;28;20480;-59
2022/12/12 01:49:06;;;;;;;42.57;16.00;;;2.30;98.20;;;;;;5016531;28;20461;-60
2022/12/12 01:51:33;;;;;;;53.57;18.83;;;2.40;98.30;;;;;;5016397;28;20492;-59
2022/12/12 01:54:02;;;;;;;57.60;19.20;;;;;;;;;;5016226;28;20858;-60
2022/12/12 01:56:32;;;;;;;57.27;21.63;;;2.30;98.40;;;;;;5034196;28;20501;-60
2022/12/12 01:59:03;;;;;;;63.17;15.93;;;2.30;98.40;;;;;;5022530;28;20884;-59
2022/12/12 02:01:30;;;;;;;59.93;21.20;;;2.30;98.30;;;;;;5029035;28;20567;-59
2022/12/12 02:04:00;;;;;;;51.17;18.30;;;2.20;98.20;;;;;;5036558;28;20739;-59
2022/12/12 02:06:29;;;;;;;79.07;23.63;;;2.20;98.30;;;;;;5033867;28;20861;-59
2022/12/12 02:09:00;;;;;;;42.90;15.73;;;2.20;98.30;;;;;;5029893;28;20471;-59
2022/12/12 02:11:29;;;;;;;58.40;19.50;;;2.20;98.30;;;;;;5010577;28;20496;-59
2022/12/12 02:13:57;;;;;;;44.77;15.20;;;4.10;99.40;;;;;;5019684;28;20590;-59
2022/12/12 02:16:34;;;;;;;59.60;20.40;;;2.20;98.00;;;;;;5019606;28;20783;-59
2022/12/12 02:19:15;;;;;;;47.53;16.40;;;2.00;97.90;;;;;;5039366;28;20557;-59
2022/12/12 02:21:46;;;;;;;51.57;16.37;;;2.00;98.30;;;;;;5038174;28;20488;-59
2022/12/12 02:24:41;;;;;;;52.23;16.67;;;2.10;98.60;;;;;;5036514;28;20477;-59
2022/12/12 02:27:49;;;;;;;44.13;15.33;;;2.20;98.60;;;;;;5021454;28;20472;-60
2022/12/12 02:30:21;;;;;;;46.50;18.20;;;2.20;98.30;;;;;;5023092;28;20512;-60
2022/12/12 02:33:18;;;;;;;50.33;18.10;;;2.10;98.00;;;;;;5017055;28;21010;-59
2022/12/12 02:36:00;;;;;;;46.17;16.70;;;2.10;98.20;;;;;;5031209;28;20499;-59
2022/12/12 02:38:31;;;;;;;59.50;19.83;;;2.20;98.30;;;;;;5022648;28;20960;-59
2022/12/12 02:41:10;;;;;;;53.03;18.00;;;2.20;98.30;;;;;;5035988;28;20487;-59
2022/12/12 02:43:42;;;;;;;48.90;17.03;;;2.30;98.30;;;;;;5034162;28;20654;-59
2022/12/12 02:46:17;;;;;;;53.23;17.90;;;2.30;98.40;;;;;;5031662;28;20511;-59
2022/12/12 02:48:50;;;;;;;48.20;15.13;;;2.30;98.30;;;;;;5032960;28;20503;-59
2022/12/12 02:51:19;;;;;;;44.03;15.10;;;2.30;98.00;;;;;;5036917;28;20499;-60
2022/12/12 02:53:46;;;;;;;39.83;13.40;;;2.30;98.00;;;;;;5035012;28;20515;-59
2022/12/12 02:56:44;;;;;;;59.23;18.40;;;2.30;98.10;;;;;;5027975;28;20489;-59
2022/12/12 02:59:14;;;;;;;41.13;13.80;;;2.30;98.00;;;;;;5029018;28;20485;-59
2022/12/12 03:01:51;;;;;;;38.60;14.03;;;2.30;97.80;;;;;;5034129;28;21016;-60
2022/12/12 03:10:13;;;;;;;42.07;15.80;;;2.00;97.00;;;;;;5035344;28;20533;-59
2022/12/12 03:12:49;;;;;;;37.80;13.30;;;1.80;97.10;;;;;;5029568;28;20774;-59
2022/12/12 03:15:22;;;;;;;40.27;15.27;;;1.90;97.40;;;;;;5024128;28;20504;-59
2022/12/12 03:18:00;;;;;;;35.57;12.77;;;1.90;97.60;;;;;;5028897;28;20847;-58
2022/12/12 03:20:40;;;;;;;48.50;17.97;;;2.00;97.50;;;;;;5031205;28;20471;-59
2022/12/12 03:23:13;;;;;;;45.17;13.70;;;2.00;97.70;;;;;;5023600;28;20476;-58
2022/12/12 03:25:47;;;;;;;37.13;15.50;;;2.10;97.80;;;;;;5024057;28;20477;-59
2022/12/12 03:28:23;;;;;;;34.40;13.23;;;2.00;97.60;;;;;;5018554;28;20482;-58
2022/12/12 03:30:54;;;;;;;28.53;11.67;;;;;;;;;;5018614;28;20487;-58
2022/12/12 03:33:26;;;;;;;32.77;14.07;;;1.80;97.40;;;;;;5031031;28;20480;-59
2022/12/12 03:36:00;;;;;;;39.67;13.40;;;1.70;97.60;;;;;;5055497;28;20577;-58
2022/12/12 03:38:31;;;;;;;49.10;18.80;;;1.70;97.60;;;;;;5018524;28;20492;-59
2022/12/12 03:41:01;;;;;;;29.77;12.10;;;1.60;97.70;;;;;;5047746;28;20466;-59
2022/12/12 03:43:31;;;;;;;51.50;17.57;;;1.60;97.60;;;;;;5034206;28;20687;-59
2022/12/12 03:49:24;;;;;;;29.60;11.60;;;1.70;98.00;;;;;;5011055;28;20467;-60
2022/12/12 03:51:58;;;;;;;31.17;12.53;;;1.70;98.00;;;;;;5018694;28;20976;-59
2022/12/12 03:54:31;;;;;;;46.40;19.10;;;1.70;98.00;;;;;;5028087;28;20503;-59
2022/12/12 03:57:02;;;;;;;27.83;10.33;;;1.80;98.00;;;;;;5023902;28;20885;-59
2022/12/12 03:59:33;;;;;;;52.70;18.20;;;1.80;97.90;;;;;;5016749;28;20841;-59
2022/12/12 04:02:07;;;;;;;42.17;13.23;;;1.80;97.80;;;;;;5034952;28;20899;-60
2022/12/12 04:04:39;;;;;;;38.00;15.30;;;1.80;97.90;;;;;;5034170;28;21271;-59
2022/12/12 04:07:13;;;;;;;34.67;13.90;;;1.90;97.60;;;;;;5020944;28;21326;-59
2022/12/12 04:15:26;;;;;;;45.70;15.87;;;;;;;;;;5035056;28;20483;-59
2022/12/12 04:18:01;;;;;;;31.23;11.53;;;1.30;97.20;;;;;;5036218;28;20484;-59
2022/12/12 04:23:28;;;;;;;41.60;15.53;;;0.90;96.60;;;;;;5022023;28;20575;-59
2022/12/12 04:28:55;;;;;;;41.97;11.90;;;0.70;96.50;;;;;;5031102;28;20506;-59
2022/12/12 04:31:26;;;;;;;43.03;13.37;;;0.50;96.40;;;;;;5026496;28;20481;-58
2022/12/12 04:34:00;;;;;;;29.97;11.43;;;0.50;96.60;;;;;;5017109;28;20481;-60
2022/12/12 04:36:29;;;;;;;54.13;16.07;;;0.50;96.70;;;;;;5014518;28;20484;-60
2022/12/12 04:38:58;;;;;;;28.27;9.87;;;0.40;96.60;;;;;;5016106;28;20497;-59
2022/12/12 04:41:28;;;;;;;66.63;20.93;;;0.40;96.90;;;;;;5008022;28;20492;-59
2022/12/12 04:43:56;;;;;;;39.77;11.57;;;0.30;96.60;;;;;;5013718;28;20477;-59
2022/12/12 04:46:26;;;;;;;55.27;17.57;;;0.30;96.70;;;;;;5007712;28;20476;-59
2022/12/12 04:48:57;;;;;;;34.37;11.37;;;0.40;96.80;;;;;;5021738;28;20564;-59
2022/12/12 04:51:29;;;;;;;39.70;12.37;;;0.50;96.80;;;;;;5015690;28;20469;-59
2022/12/12 04:54:05;;;;;;;34.47;12.17;;;0.60;97.00;;;;;;5015112;28;20488;-59
2022/12/12 04:56:36;;;;;;;47.10;14.90;;;0.60;96.90;;;;;;5011831;28;20758;-58
2022/12/12 04:59:04;;;;;;;39.63;13.17;;;0.60;96.50;;;;;;5017970;28;20473;-59
2022/12/12 05:01:38;;;;;;;37.93;14.60;;;0.50;96.30;;;;;;5014211;28;20488;-58
2022/12/12 05:04:11;;;;;;;38.20;11.63;;;0.30;96.30;;;;;;5015047;28;20817;-58
2022/12/12 05:06:42;;;;;;;36.87;11.87;;;0.10;96.40;;;;;;5019979;28;20492;-59
2022/12/12 05:09:12;;;;;;;58.17;12.40;;;-0.10;96.50;;;;;;5036218;28;20484;-59
2022/12/12 05:11:39;;;;;;;40.87;14.63;;;;;;;;;;5034307;28;20476;-59
2022/12/12 05:14:08;;;;;;;33.60;11.90;;;-0.20;96.80;;;;;;5033991;28;20492;-59
2022/12/12 05:16:40;;;;;;;39.53;13.27;;;-0.10;96.90;;;;;;5032398;28;21613;-59
2022/12/12 05:19:07;;;;;;;24.03;11.80;;;0.00;96.90;;;;;;5034365;28;20492;-59
2022/12/12 05:21:33;;;;;;;40.47;14.23;;;0.10;97.10;;;;;;5038203;28;20476;-59
2022/12/12 05:24:00;;;;;;;32.67;9.27;;;0.10;97.30;;;;;;5038773;28;21175;-59
2022/12/12 05:26:30;;;;;;;42.77;13.20;;;;;;;;;;5036698;28;20491;-59
2022/12/12 05:28:57;;;;;;;36.13;12.33;;;0.30;97.20;;;;;;5038467;28;20476;-59
2022/12/12 05:31:23;;;;;;;52.40;15.23;;;0.30;97.10;;;;;;5036470;28;20491;-59
2022/12/12 05:33:50;;;;;;;36.60;11.20;;;0.30;97.10;;;;;;5037285;28;20483;-59
2022/12/12 05:36:17;;;;;;;26.43;11.47;;;0.40;97.00;;;;;;5035623;28;20481;-60
2022/12/12 05:38:44;;;;;;;38.37;13.73;;;0.30;96.90;;;;;;5037772;28;20484;-59
2022/12/12 05:41:11;;;;;;;29.13;10.50;;;0.20;97.00;;;;;;5037912;28;20853;-60
2022/12/12 05:43:39;;;;;;;37.33;13.07;;;0.20;97.20;;;;;;5036534;28;20484;-59
2022/12/12 05:46:07;;;;;;;43.03;14.07;;;0.20;96.90;;;;;;5036536;28;20483;-59
2022/12/12 05:48:34;;;;;;;41.97;14.70;;;0.20;97.00;;;;;;5035707;28;20473;-59
2022/12/12 05:51:01;;;;;;;34.90;13.13;;;0.20;96.90;;;;;;5038074;28;21020;-59
2022/12/12 05:53:28;;;;;;;51.93;16.27;;;0.20;96.70;;;;;;5038493;28;20481;-60
2022/12/12 05:55:55;;;;;;;32.43;12.00;;;;;;;;;;5040525;28;20480;-59
2022/12/12 05:58:23;;;;;;;48.57;17.40;;;0.20;96.50;;;;;;5039665;28;21001;-59
2022/12/12 06:00:52;;;;;;;31.83;11.47;;;0.10;96.80;;;;;;5036494;28;20500;-60
2022/12/12 06:03:19;;;;;;;39.10;13.37;;;0.20;97.10;;;;;;5033750;28;20556;-60
2022/12/12 06:05:45;;;;;;;32.40;13.00;;;0.20;97.00;;;;;;5037108;28;20860;-60
2022/12/12 06:08:16;;;;;;;45.70;13.57;;;3.00;98.00;;;;;;5033645;28;20766;-60
2022/12/12 06:10:44;;;;;;;39.30;11.57;;;0.10;96.70;;;;;;5037432;28;20891;-60
2022/12/12 06:13:11;;;;;;;25.40;8.97;;;0.10;96.50;;;;;;5032645;28;20479;-59
2022/12/12 06:15:39;;;;;;;27.30;11.20;;;0.00;96.40;;;;;;5046036;28;20492;-60
2022/12/12 06:18:08;;;;;;;37.33;12.07;;;0.00;96.40;;;;;;5035880;28;20484;-60
2022/12/12 06:20:35;;;;;;;33.60;11.60;;;0.00;96.30;;;;;;5035685;28;20484;-60
2022/12/12 06:23:02;;;;;;;30.63;11.30;;;-0.10;96.10;;;;;;5034919;28;20480;-60
2022/12/12 06:25:29;;;;;;;44.63;14.50;;;-0.40;96.20;;;;;;5036473;28;20785;-59
2022/12/12 06:27:55;;;;;;;22.60;9.43;;;-0.50;96.60;;;;;;5039241;28;20487;-60
2022/12/12 06:30:22;;;;;;;46.83;15.43;;;-0.60;96.70;;;;;;5037050;28;20484;-60
2022/12/12 06:32:49;;;;;;;34.97;12.07;;;-0.60;96.80;;;;;;5032625;28;20476;-59
2022/12/12 06:35:17;;;;;;;31.93;11.53;;;-0.50;96.90;;;;;;5036877;28;20474;-59
2022/12/12 06:37:44;;;;;;;32.93;12.23;;;-0.50;96.80;;;;;;5035367;28;20498;-60
2022/12/12 06:40:12;;;;;;;28.33;10.93;;;-0.50;96.40;;;;;;5036632;28;20476;-60
2022/12/12 06:42:39;;;;;;;57.77;12.57;;;1.20;97.00;;;;;;5035944;28;20487;-60
2022/12/12 06:45:06;;;;;;;38.53;11.97;;;-0.60;96.10;;;;;;5033097;28;20476;-60
2022/12/12 06:47:33;;;;;;;38.83;13.50;;;-0.60;96.20;;;;;;5034930;28;20580;-60
2022/12/12 06:50:00;;;;;;;46.57;11.97;;;-0.60;96.20;;;;;;5034336;28;20492;-60
2022/12/12 06:52:28;;;;;;;57.03;16.40;;;-0.60;96.30;;;;;;5034278;28;20956;-59
2022/12/12 06:54:55;;;;;;;19.67;9.70;;;-0.60;96.30;;;;;;5032598;28;20855;-60
2022/12/12 06:57:21;;;;;;;37.37;11.03;;;-0.70;96.30;;;;;;5030129;28;20480;-60
2022/12/12 06:59:50;;;;;;;29.00;10.20;;;-0.70;96.00;;;;;;5038495;28;22747;-59
2022/12/12 07:02:17;;;;;;;38.73;13.70;;;-0.70;95.90;;;;;;5033884;28;21041;-59
2022/12/12 07:04:44;;;;;;;46.87;12.10;;;-0.90;95.50;;;;;;5030790;28;20811;-60
2022/12/12 07:07:11;;;;;;;33.57;11.33;;;-1.00;95.50;;;;;;5053452;28;20475;-59
2022/12/12 07:09:39;;;;;;;33.80;12.17;;;-1.20;95.40;;;;;;5047213;28;20477;-59
2022/12/12 07:12:06;;;;;;;39.23;11.67;;;-1.20;95.80;;;;;;5035402;28;20504;-60
2022/12/12 07:14:33;;;;;;;47.93;14.23;;;;;;;;;;5034749;28;20480;-59
2022/12/12 07:16:59;;;;;;;39.90;12.77;;;-1.40;95.70;;;;;;5033814;28;21223;-59
2022/12/12 07:19:26;;;;;;;46.10;13.60;;;-1.50;95.90;;;;;;5034640;28;20483;-59
2022/12/12 07:21:53;;;;;;;34.70;11.93;;;-1.50;96.20;;;;;;5036006;28;20472;-59
2022/12/12 07:24:19;;;;;;;58.80;16.57;;;-1.50;96.50;;;;;;5035151;28;20518;-59
2022/12/12 07:26:47;;;;;;;37.07;10.10;;;-1.40;96.60;;;;;;5034750;28;20488;-59
2022/12/12 07:29:14;;;;;;;31.37;10.87;;;-1.30;96.60;;;;;;5029883;28;20469;-60
2022/12/12 07:31:41;;;;;;;34.47;11.47;;;-1.30;96.50;;;;;;5035371;28;20959;-59
2022/12/12 07:34:08;;;;;;;30.40;9.30;;;-1.30;96.40;;;;;;5035877;28;20493;-60
2022/12/12 07:36:34;;;;;;;33.40;11.87;;;-1.30;96.10;;;;;;5033230;28;20491;-60
2022/12/12 07:39:01;;;;;;;30.50;10.90;;;-1.40;95.40;;;;;;5033435;28;20748;-60
2022/12/12 07:41:28;;;;;;;46.23;12.27;;;-1.40;95.50;;;;;;5036095;28;20483;-59
2022/12/12 07:43:56;;;;;;;30.57;11.10;;;-1.60;95.40;;;;;;5018930;28;20485;-60
2022/12/12 07:46:24;;;;;;;62.83;17.17;;;-1.60;95.70;;;;;;5021354;28;20871;-59
2022/12/12 07:48:52;;;;;;;29.90;9.60;;;-1.60;95.90;;;;;;5015249;28;20484;-60
2022/12/12 07:51:19;;;;;;;44.90;15.03;;;-1.50;95.80;;;;;;5025540;28;21049;-60
2022/12/12 07:53:46;;;;;;;28.00;9.53;;;-1.50;95.70;;;;;;5017944;28;20481;-59
2022/12/12 07:56:15;;;;;;;38.73;12.80;;;-1.40;95.70;;;;;;5027406;28;20593;-60
2022/12/12 07:58:42;;;;;;;48.77;14.60;;;-1.50;95.40;;;;;;5035174;28;20565;-60
2022/12/12 08:01:12;;;;;;;39.27;10.03;;;-1.50;95.40;;;;;;5033929;28;20977;-60
2022/12/12 08:03:40;;;;;;;52.80;11.87;;;;;;;;;;5037541;28;20480;-61
2022/12/12 08:06:07;;;;;;;48.40;14.10;;;-1.10;96.00;;;;;;5035641;28;20491;-60
2022/12/12 08:08:34;;;;;;;40.53;11.50;;;-1.30;96.00;;;;;;5031492;28;20479;-60
2022/12/12 08:11:05;;;;;;;29.23;9.30;;;-1.20;95.90;;;;;;5033784;28;20787;-59
2022/12/12 08:13:33;;;;;;;58.63;16.50;;;;;;;;;;5034381;28;20476;-60
2022/12/12 08:16:00;;;;;;;55.37;13.70;;;-1.50;95.30;;;;;;5034358;28;21062;-59
2022/12/12 08:18:28;;;;;;;58.63;14.73;;;-1.50;95.80;;;;;;5034009;28;20475;-59
2022/12/12 08:20:55;;;;;;;36.87;9.83;;;;;;;;;;5023945;28;20481;-59
2022/12/12 08:23:22;;;;;;;62.23;15.77;;;;;;;;;;5016410;28;21008;-59
2022/12/12 08:25:49;;;;;;;42.40;10.73;;;;;;;;;;5011122;28;20512;-59
2022/12/12 08:28:17;;;;;;;51.47;13.53;;;-0.60;96.10;;;;;;5014276;28;20482;-58
2022/12/12 08:30:48;;;;;;;32.17;12.10;;;0.00;96.50;;;;;;5012519;28;20566;-59
2022/12/12 08:33:15;;;;;;;39.37;13.87;;;0.50;96.40;;;;;;5014509;28;20489;-59
2022/12/12 08:35:43;;;;;;;47.53;14.90;;;0.60;94.70;;;;;;5013342;28;20488;-59
2022/12/12 08:38:10;;;;;;;41.77;14.27;;;0.40;94.30;;;;;;5008293;28;21184;-59
2022/12/12 08:40:37;;;;;;;41.00;12.40;;;0.10;94.60;;;;;;5027472;28;20770;-60
2022/12/12 08:43:03;;;;;;;40.77;13.70;;;0.00;95.00;;;;;;5012842;28;20906;-59
2022/12/12 08:45:30;;;;;;;62.13;17.80;;;-0.20;95.40;;;;;;5021586;28;20499;-60
2022/12/12 08:47:57;;;;;;;31.13;12.80;;;-0.30;95.90;;;;;;5009736;28;20889;-59
2022/12/12 08:50:24;;;;;;;77.40;22.63;;;-0.50;96.30;;;;;;5022616;28;20495;-59
2022/12/12 08:52:53;;;;;;;59.67;16.43;;;;;;;;;;5022218;28;20480;-59
2022/12/12 08:55:20;;;;;;;51.37;17.37;;;;;;;;;;5014763;28;20481;-58
2022/12/12 08:57:47;;;;;;;36.30;14.03;;;-0.90;97.80;;;;;;5012355;28;20489;-59
2022/12/12 09:00:14;;;;;;;41.00;16.20;;;-1.10;97.70;;;;;;5034752;28;20484;-59
2022/12/12 09:02:41;;;;;;;56.23;17.70;;;-1.20;97.90;;;;;;5026126;28;20856;-59
2022/12/12 09:05:09;;;;;;;47.73;13.90;;;-1.20;98.60;;;;;;5032351;28;20850;-59
2022/12/12 09:07:36;;;;;;;55.63;16.97;;;-1.10;98.30;;;;;;5019570;28;20687;-59
2022/12/12 09:10:05;;;;;;;59.90;17.33;;;-1.10;98.10;;;;;;5018553;28;20861;-60
2022/12/12 09:12:32;;;;;;;75.67;17.90;;;-1.20;98.30;;;;;;5016978;28;20488;-59
2022/12/12 09:14:58;;;;;;;66.07;17.07;;;-1.10;98.60;;;;;;5026445;28;20681;-58
2022/12/12 09:17:25;;;;;;;69.13;17.27;;;;;;;;;;5030698;28;20472;-58
2022/12/12 09:19:52;;;;;;;42.23;16.30;;;;;;;;;;5022646;28;20481;-59
2022/12/12 09:22:19;;;;;;;68.90;18.60;;;-1.50;98.80;;;;;;5018094;28;20484;-59
2022/12/12 09:24:46;;;;;;;56.80;18.53;;;-1.50;99.00;;;;;;5016594;28;20985;-59
2022/12/12 09:27:14;;;;;;;58.90;17.13;;;-1.40;99.20;;;;;;5011391;28;20551;-59
2022/12/12 09:29:41;;;;;;;35.23;9.70;;;-1.30;99.00;;;;;;5027320;28;20473;-58
2022/12/12 09:32:08;;;;;;;55.53;16.60;;;-1.20;99.40;;;;;;5028484;28;20484;-58
2022/12/12 09:34:36;;;;;;;53.97;16.17;;;-0.90;99.40;;;;;;5041441;28;20480;-58
2022/12/12 09:37:03;;;;;;;53.30;15.90;;;-0.80;98.90;;;;;;5026244;28;20477;-59
2022/12/12 09:39:29;;;;;;;62.17;18.27;;;-0.60;99.00;;;;;;5034496;28;20485;-59
2022/12/12 09:41:57;;;;;;;43.47;13.90;;;-0.50;98.80;;;;;;5039771;28;20859;-59
2022/12/12 09:44:26;;;;;;;75.67;21.87;;;;;;;;;;5038007;28;20476;-58
2022/12/12 09:46:56;;;;;;;55.03;16.27;;;-0.20;98.40;;;;;;5031089;28;20488;-59
2022/12/12 09:49:34;;;;;;;65.33;16.37;;;-0.30;98.00;;;;;;5032703;28;20556;-59
2022/12/12 09:52:01;;;;;;;34.80;13.40;;;-0.10;98.90;;;;;;5024462;28;20523;-59
2022/12/12 09:54:28;;;;;;;68.40;18.63;;;0.00;98.90;;;;;;5048803;28;20482;-59
2022/12/12 09:57:06;;;;;;;44.77;14.53;;;0.20;98.60;;;;;;5048316;28;20487;-59
2022/12/12 09:59:40;;;;;;;65.30;20.33;;;0.30;98.40;;;;;;5027503;28;20472;-59
2022/12/12 10:02:36;;;;;;;37.03;13.70;;;0.40;98.00;;;;;;5033306;28;20562;-59
2022/12/12 10:05:05;;;;;;;57.60;18.03;;;;;;;;;;5034355;28;20483;-59
2022/12/12 10:07:36;;;;;;;55.47;17.60;;;;;;;;;;5033163;28;21595;-58
2022/12/12 10:10:15;;;;;;;51.53;18.03;;;0.30;97.60;;;;;;5039048;28;20476;-59
2022/12/12 10:12:42;;;;;;;57.63;15.73;;;0.10;97.70;;;;;;5038872;28;20485;-59
2022/12/12 10:15:25;;;;;;;66.43;19.97;;;-0.10;97.80;;;;;;5035317;28;20499;-59
2022/12/12 10:17:55;;;;;;;50.20;15.73;;;0.00;98.60;;;;;;5030591;28;20475;-59
2022/12/12 10:20:23;;;;;;;71.27;18.80;;;;;;;;;;5031372;28;20494;-59
2022/12/12 10:22:55;;;;;;;38.37;13.60;;;0.30;98.60;;;;;;5035126;28;20490;-59
2022/12/12 10:25:25;;;;;;;62.90;19.00;;;0.40;98.10;;;;;;5013836;28;20502;-59
2022/12/12 10:27:55;;;;;;;43.70;15.03;;;0.60;98.60;;;;;;5029890;28;20492;-58
2022/12/12 10:30:23;;;;;;;73.37;21.10;;;0.70;98.50;;;;;;5035213;28;20483;-60
2022/12/12 10:33:10;;;;;;;45.70;18.47;;;0.90;98.40;;;;;;5016728;28;20477;-59
2022/12/12 10:35:40;;;;;;;48.80;17.47;;;;;;;;;;5028591;28;20895;-59
2022/12/12 10:38:20;;;;;;;44.17;14.87;;;1.00;97.60;;;;;;5029160;28;20659;-60
2022/12/12 10:40:56;;;;;;;43.30;14.00;;;;;;;;;;5020311;28;20481;-59
2022/12/12 10:43:27;;;;;;;41.90;13.73;;;0.90;97.50;;;;;;5008753;28;20477;-59
2022/12/12 10:46:12;;;;;;;39.67;13.33;;;0.90;97.60;;;;;;5026165;28;20506;-59
2022/12/12 10:48:39;;;;;;;50.70;14.17;;;;;;;;;;5019895;28;20488;-59
2022/12/12 10:51:10;;;;;;;35.93;15.00;;;0.60;97.50;;;;;;5006154;28;20905;-59
2022/12/12 10:53:39;;;;;;;43.50;14.63;;;0.50;97.80;;;;;;5028036;28;20769;-60
2022/12/12 10:56:09;;;;;;;45.43;15.77;;;0.70;98.50;;;;;;5017607;28;20539;-60
2022/12/12 10:58:38;;;;;;;51.83;15.70;;;1.00;98.70;;;;;;5017013;28;20484;-59
2022/12/12 11:01:13;;;;;;;45.97;14.37;;;1.20;98.20;;;;;;5015563;28;20977;-60
2022/12/12 11:03:42;;;;;;;47.20;16.70;;;1.30;98.10;;;;;;5023723;28;20549;-60
2022/12/12 11:06:14;;;;;;;70.50;16.63;;;1.30;97.60;;;;;;5030899;28;20514;-59
2022/12/12 11:08:53;;;;;;;40.07;14.87;;;1.50;97.70;;;;;;5034198;28;20476;-60
2022/12/12 11:11:22;;;;;;;38.50;14.23;;;1.50;97.60;;;;;;5035274;28;20476;-60
2022/12/12 11:13:52;;;;;;;37.80;14.77;;;1.60;97.80;;;;;;5036181;28;20480;-59
2022/12/12 11:16:23;;;;;;;46.87;14.40;;;1.80;97.90;;;;;;5033152;28;20487;-59
2022/12/12 11:19:16;;;;;;;38.17;12.80;;;1.40;96.60;;;;;;5035558;28;20551;-59
2022/12/12 11:21:44;;;;;;;38.50;15.07;;;1.30;97.10;;;;;;5033967;28;20499;-59
2022/12/12 11:24:14;;;;;;;52.43;17.00;;;1.30;97.30;;;;;;5034846;28;20495;-59
2022/12/12 11:26:46;;;;;;;32.43;13.97;;;1.10;97.20;;;;;;5023047;28;21357;-60
2022/12/12 11:29:28;;;;;;;35.70;10.00;;;0.80;96.80;;;;;;5014384;28;20480;-59
2022/12/12 11:31:57;;;;;;;32.90;11.50;;;0.80;97.60;;;;;;5012176;28;20481;-59
2022/12/12 11:34:27;;;;;;;53.83;18.23;;;0.90;97.90;;;;;;5022236;28;20473;-59
2022/12/12 11:36:55;;;;;;;36.73;14.90;;;1.10;98.20;;;;;;5047555;28;20631;-59
2022/12/12 11:39:25;;;;;;;53.90;17.80;;;1.20;97.80;;;;;;5024260;28;20484;-59
2022/12/12 11:41:59;;;;;;;35.73;13.30;;;;;;;;;;5030699;28;20480;-59
2022/12/12 11:44:30;;;;;;;60.37;21.10;;;1.50;98.20;;;;;;5021581;28;20486;-58
2022/12/12 11:47:20;;;;;;;31.27;14.77;;;1.60;97.90;;;;;;5021210;28;20485;-58
2022/12/12 11:49:48;;;;;;;37.97;15.30;;;1.80;97.80;;;;;;5026579;28;20476;-60
2022/12/12 11:52:19;;;;;;;44.30;17.40;;;1.90;97.70;;;;;;5034670;28;20857;-59
2022/12/12 11:54:46;;;;;;;41.93;14.10;;;2.10;97.90;;;;;;5035164;28;21046;-59
2022/12/12 11:57:21;;;;;;;35.77;15.53;;;2.20;97.30;;;;;;5034086;28;20953;-59
2022/12/12 11:59:58;;;;;;;43.70;13.20;;;2.30;97.40;;;;;;5034686;28;20487;-60
2022/12/12 12:03:16;;;;;;;65.00;20.70;;;2.20;96.80;;;;;;5034199;28;20581;-60
2022/12/12 12:05:55;;;;;;;49.57;19.00;;;2.30;96.80;;;;;;5025748;28;20480;-60
2022/12/12 12:08:38;;;;;;;47.53;17.17;;;2.50;97.20;;;;;;5034195;28;20487;-59
2022/12/12 12:11:15;;;;;;;48.17;16.27;;;2.60;97.00;;;;;;5024882;28;20486;-59
2022/12/12 12:14:07;;;;;;;41.30;17.57;;;2.80;96.90;;;;;;5035143;28;20476;-60
2022/12/12 12:16:45;;;;;;;50.07;13.47;;;2.60;95.50;;;;;;5033653;28;20495;-60
2022/12/12 12:19:20;;;;;;;33.77;13.63;;;2.50;95.50;;;;;;5016211;28;20482;-59
2022/12/12 12:21:59;;;;;;;31.23;13.70;;;2.30;95.70;;;;;;5024882;28;20487;-60
2022/12/12 12:24:48;;;;;;;46.80;17.87;;;2.50;97.20;;;;;;5037547;28;20495;-60
2022/12/12 12:27:21;;;;;;;33.53;14.93;;;2.90;97.80;;;;;;5030705;28;20480;-60
2022/12/12 12:30:03;;;;;;;28.73;12.57;;;;;;;;;;5037576;28;20488;-60
2022/12/12 12:32:38;;;;;;;40.70;18.57;;;3.80;97.00;;;;;;5036597;28;20488;-60
2022/12/12 12:35:20;;;;;;;46.10;17.40;;;4.20;96.80;;;;;;5030211;28;20836;-60
2022/12/12 12:37:58;;;;;;;39.77;15.70;;;4.60;96.70;;;;;;5022040;28;20498;-60
2022/12/12 12:40:43;;;;;;;47.27;20.20;;;5.10;96.40;;;;;;5030301;28;20512;-60
2022/12/12 12:43:28;;;;;;;40.33;15.57;;;5.30;95.80;;;;;;5012119;28;21030;-60
2022/12/12 12:46:00;;;;;;;36.70;15.23;;;5.60;95.20;;;;;;5026997;28;20487;-60
2022/12/12 12:48:30;;;;;;;42.47;17.73;;;5.80;95.00;;;;;;5030232;28;21444;-60
2022/12/12 12:51:04;;;;;;;29.70;13.17;;;5.90;94.60;;;;;;5040712;28;21097;-60
2022/12/12 12:53:36;;;;;;;41.93;20.60;;;5.90;94.20;;;;;;5037141;28;20483;-60
2022/12/12 12:56:09;;;;;;;41.57;17.67;;;5.90;94.30;;;;;;5033593;28;20468;-60
2022/12/12 12:58:42;;;;;;;38.70;15.80;;;6.00;94.20;;;;;;5037837;28;20500;-60
2022/12/12 13:01:13;;;;;;;35.60;16.43;;;6.00;93.90;;;;;;5030182;28;20512;-60
2022/12/12 13:03:45;;;;;;;29.17;13.63;;;6.00;94.10;;;;;;5039122;28;20483;-59
2022/12/12 13:06:18;;;;;;;38.50;16.80;;;6.10;94.00;;;;;;5031562;28;20493;-59
2022/12/12 13:08:57;;;;;;;33.57;16.50;;;6.30;94.30;;;;;;5023878;28;20476;-59
2022/12/12 13:11:31;;;;;;;39.00;17.43;;;6.40;93.50;;;;;;5035003;28;21035;-59
2022/12/12 13:14:12;;;;;;;27.53;12.93;;;6.50;93.40;;;;;;5037830;28;21105;-60
2022/12/12 13:16:40;;;;;;;30.00;13.73;;;6.40;92.90;;;;;;5032454;28;20502;-59
2022/12/12 13:19:13;;;;;;;32.97;16.67;;;6.40;93.40;;;;;;5038344;28;20487;-60
2022/12/12 13:21:49;;;;;;;36.30;15.60;;;6.50;93.40;;;;;;5040245;28;20497;-59